KCRG/CRG METAR and TAF weather

Enter ICAO airport designator
Station Type Date Time Source
KCRG METAR 2020/07/09 08:53 UTC NOAA

KCRG 090853Z AUTO 24003KT 10SM CLR 25/23 A2988 RMK AO2 SLP118 T02500228 55001


Station Type Date Time Source
KCRG Decoded METAR 2020/07/09 08:53 UTC NOAA

JACKSONVILLE CRAIG MUN, FL, United States (KCRG) 30-20N 81-31W 13M
Jul 09, 2020 - 04:53 AM EDT / 2020.07.09 0853 UTC
Wind: from the WSW (240 degrees) at 3 MPH (3 KT):0
Visibility: 10 mile(s):0
Sky conditions: clear
Temperature: 77.0 F (25.0 C)
Dew Point: 73.0 F (22.8 C)
Relative Humidity: 87%
Pressure (altimeter): 29.88 in. Hg (1011 hPa)
Pressure tendency: 0.00 inches (0.1 hPa) lower than three hours ago
ob: KCRG 090853Z AUTO 24003KT 10SM CLR 25/23 A2988 RMK AO2 SLP118 T02500228 55001
cycle: 9

Station Type Date Time Source
KCRG TAF 2020/07/09 06:40 UTC NOAA

TAF KCRG 090538Z 0906/1006 25006KT P6SM FEW060 BKN250
FM090900 VRB04KT P6SM SCT030 BKN250
FM091500 28008KT P6SM VCTS SCT025CB OVC050
TEMPO 0918/0922 5SM -TSRA BKN025CB
FM100200 26003KT P6SM FEW030 SCT060 BKN200

Example: see airport list